Yarmouth, Iowa
Current Conditions -  °F | °C
As of 10:15 AM on Tuesday 21 Oct 2014 (Local Time) from KMPZ Reporting Station
Clear Clear  
Wind Chill: 54°   Ceiling: Unl
Heat Index: 54°   Visibility: 10mi
Dew Point: 43°   Wind: 10mph
Humidity: 66%   Direction: 70°ENE
Pressure: 30.19"   Gusts: NA
Location:  41.03°N, 91.32°W
Report Text: KMPZ 211515Z AUTO 07009KT 10SM CLR 12/06 A3019 RMK AO2 T01210059
Loading
Personal Weather Stations






























Interactive Weather Map
Tropical Storm Tracking
New forecast layout! Learn more

10-Day Weather Forecast

Advertisements
Track Severe Weather on mobile